createdAt,value
2022-09-23T00:01:44.350Z,11.3
2022-09-23T00:04:16.797Z,11.3
2022-09-23T00:06:49.457Z,11.3
2022-09-23T00:09:21.928Z,11.2
2022-09-23T00:11:54.456Z,11.3
2022-09-23T00:14:27.645Z,11.4
2022-09-23T00:17:00.041Z,11.3
2022-09-23T00:19:32.611Z,11.2
2022-09-23T00:22:04.711Z,11.1
2022-09-23T00:24:37.234Z,11.2
2022-09-23T00:27:09.279Z,11.1
2022-09-23T00:29:41.355Z,11.1
2022-09-23T00:32:14.533Z,11.1
2022-09-23T00:34:46.781Z,11
2022-09-23T00:37:19.078Z,10.9
2022-09-23T00:39:51.573Z,10.9
2022-09-23T00:42:23.961Z,10.9
2022-09-23T00:44:57.455Z,10.9
2022-09-23T00:47:30.128Z,10.8
2022-09-23T00:50:02.427Z,10.8
2022-09-23T00:52:34.864Z,10.9
2022-09-23T00:55:07.612Z,10.8
2022-09-23T00:57:40.220Z,10.8
2022-09-23T01:00:12.108Z,10.8
2022-09-23T01:02:44.582Z,10.8
2022-09-23T01:05:17.162Z,10.8
2022-09-23T01:07:49.305Z,10.7
2022-09-23T01:10:21.785Z,10.8
2022-09-23T01:12:59.456Z,10.7
2022-09-23T01:15:31.902Z,10.5
2022-09-23T01:18:04.438Z,10.4
2022-09-23T01:20:37.524Z,10.5
2022-09-23T01:23:10.125Z,10.5
2022-09-23T01:25:42.643Z,10.4
2022-09-23T01:28:15.257Z,10.5
2022-09-23T01:30:47.593Z,10.5
2022-09-23T01:33:19.951Z,10.5
2022-09-23T01:35:52.504Z,10.5
2022-09-23T01:38:25.059Z,10.5
2022-09-23T01:40:57.367Z,10.6
2022-09-23T01:43:30.048Z,10.6
2022-09-23T01:46:02.529Z,10.4
2022-09-23T01:48:35.272Z,10.4
2022-09-23T01:51:07.927Z,10.4
2022-09-23T01:53:40.392Z,10.4
2022-09-23T01:56:12.691Z,10.4
2022-09-23T01:58:45.369Z,10.4
2022-09-23T02:01:17.652Z,10.5
2022-09-23T02:03:50.105Z,10.4
2022-09-23T02:06:22.606Z,10.4
2022-09-23T02:08:55.409Z,10.4
2022-09-23T02:11:28.893Z,10.3
2022-09-23T02:14:01.577Z,10.3
2022-09-23T02:16:34.813Z,10.2
2022-09-23T02:19:07.316Z,10.2
2022-09-23T02:21:39.771Z,10.3
2022-09-23T02:24:12.160Z,10.3
2022-09-23T02:26:44.541Z,10.3
2022-09-23T02:29:17.051Z,10.2
2022-09-23T02:31:49.516Z,10.2
2022-09-23T02:34:22.403Z,10.1
2022-09-23T02:36:55.089Z,10.1
2022-09-23T02:39:27.565Z,10.1
2022-09-23T02:42:00.295Z,10.1
2022-09-23T02:44:32.651Z,10.1
2022-09-23T02:47:05.348Z,10.1
2022-09-23T02:49:38.139Z,10
2022-09-23T02:52:10.456Z,10.1
2022-09-23T02:54:44.006Z,10.1
2022-09-23T02:57:16.565Z,10.1
2022-09-23T02:59:48.823Z,10
2022-09-23T03:02:21.400Z,10
2022-09-23T03:04:54.227Z,10.1
2022-09-23T03:07:26.421Z,9.9
2022-09-23T03:09:58.985Z,9.8
2022-09-23T03:12:31.726Z,9.9
2022-09-23T03:15:04.322Z,9.8
2022-09-23T03:17:36.659Z,9.8
2022-09-23T03:20:09.233Z,9.7
2022-09-23T03:22:41.645Z,9.7
2022-09-23T03:25:14.001Z,9.6
2022-09-23T03:27:46.579Z,9.6
2022-09-23T03:30:18.849Z,9.6
2022-09-23T03:32:51.297Z,9.4
2022-09-23T03:35:23.508Z,9.3
2022-09-23T03:37:56.200Z,9.2
2022-09-23T03:40:28.651Z,9.1
2022-09-23T03:43:01.293Z,9.1
2022-09-23T03:45:34.025Z,9.2
2022-09-23T03:48:07.585Z,9.4
2022-09-23T03:50:40.225Z,9.4
2022-09-23T03:53:12.627Z,9.5
2022-09-23T03:55:45.187Z,9.6
2022-09-23T03:58:17.461Z,9.6
2022-09-23T04:00:49.809Z,9.6
2022-09-23T04:03:22.076Z,9.6
2022-09-23T04:05:54.325Z,9.6
2022-09-23T04:08:26.879Z,9.5
2022-09-23T04:10:59.520Z,9.5
2022-09-23T04:13:32.077Z,9.6
2022-09-23T04:16:04.730Z,9.5
2022-09-23T04:18:37.709Z,9.5
2022-09-23T04:21:08.606Z,9.5
2022-09-23T04:23:40.553Z,9.4
2022-09-23T04:26:13.901Z,9.4
2022-09-23T04:28:46.107Z,9.5
2022-09-23T04:31:18.267Z,9.4
2022-09-23T04:33:51.874Z,9.4
2022-09-23T04:36:28.242Z,9.4
2022-09-23T04:39:00.682Z,9.4
2022-09-23T04:41:33.252Z,9.4
2022-09-23T04:44:05.693Z,9.4
2022-09-23T04:46:38.189Z,9.3
2022-09-23T04:49:10.914Z,9.4
2022-09-23T04:51:43.189Z,9.4
2022-09-23T04:54:15.462Z,9.3
2022-09-23T04:56:47.651Z,9.5
2022-09-23T04:59:20.137Z,9.6
2022-09-23T05:01:52.581Z,9.7
2022-09-23T05:04:25.039Z,9.7
2022-09-23T05:07:00.802Z,9.9
2022-09-23T05:09:28.751Z,10
2022-09-23T05:12:00.840Z,10
2022-09-23T05:14:33.613Z,10.1
2022-09-23T05:17:07.104Z,10.1
2022-09-23T05:19:39.467Z,10.3
2022-09-23T05:22:11.847Z,10.3
2022-09-23T05:24:44.149Z,10.4
2022-09-23T05:27:16.580Z,10.4
2022-09-23T05:29:49.035Z,10.5
2022-09-23T05:32:21.533Z,10.5
2022-09-23T05:34:53.889Z,10.6
2022-09-23T05:37:26.244Z,10.7
2022-09-23T05:39:58.484Z,10.8
2022-09-23T05:42:28.875Z,10.9
2022-09-23T05:45:00.702Z,10.9
2022-09-23T05:47:32.914Z,10.9
2022-09-23T05:50:05.032Z,11
2022-09-23T05:52:37.070Z,11
2022-09-23T05:55:09.266Z,11.1
2022-09-23T05:57:41.106Z,11.2
2022-09-23T06:00:13.632Z,11.4
2022-09-23T06:02:45.719Z,11.5
2022-09-23T06:05:17.472Z,11.5
2022-09-23T06:07:49.803Z,11.7
2022-09-23T06:10:22.086Z,11.8
2022-09-23T06:12:54.690Z,11.9
2022-09-23T06:15:27.311Z,11.9
2022-09-23T06:17:59.869Z,12.1
2022-09-23T06:20:33.357Z,12.2
2022-09-23T06:23:09.919Z,12.2
2022-09-23T06:25:39.680Z,12.4
2022-09-23T06:28:12.086Z,12.3
2022-09-23T06:30:44.343Z,12.3
2022-09-23T06:33:23.027Z,12.4
2022-09-23T06:35:56.972Z,12.6
2022-09-23T06:38:22.130Z,12.8
2022-09-23T06:40:54.968Z,12.9
2022-09-23T06:43:27.329Z,13.1
2022-09-23T06:46:00.086Z,13.2
2022-09-23T06:48:32.730Z,13.3
2022-09-23T06:51:05.252Z,13.4
2022-09-23T06:53:39.864Z,13.5
2022-09-23T06:56:12.346Z,13.6
2022-09-23T06:58:44.866Z,13.7
2022-09-23T07:01:17.681Z,13.8
2022-09-23T07:03:50.090Z,13.8
2022-09-23T07:06:22.585Z,13.9
2022-09-23T07:08:55.133Z,14
2022-09-23T07:11:28.806Z,14.1
2022-09-23T07:14:01.361Z,14.3
2022-09-23T07:16:33.642Z,14.2
2022-09-23T07:19:06.568Z,14.1
2022-09-23T07:21:39.411Z,14.3
2022-09-23T07:24:14.036Z,14.4
2022-09-23T07:26:48.791Z,14.6
2022-09-23T07:29:21.277Z,14.6
2022-09-23T07:32:06.499Z,14.8
2022-09-23T07:34:29.260Z,14.8
2022-09-23T07:37:00.850Z,15
2022-09-23T07:39:33.347Z,15.1
2022-09-23T07:42:05.579Z,15
2022-09-23T07:44:37.622Z,15.2
2022-09-23T07:47:10.189Z,15.3
2022-09-23T07:49:42.169Z,15.3
2022-09-23T07:52:14.553Z,15.3
2022-09-23T07:54:47.193Z,15.4
2022-09-23T07:57:19.858Z,15.5
2022-09-23T07:59:52.368Z,15.5
2022-09-23T08:02:25.546Z,15.7
2022-09-23T08:04:56.636Z,15.8
2022-09-23T08:07:28.916Z,15.9
2022-09-23T08:10:01.563Z,16
2022-09-23T08:12:34.172Z,16.1
2022-09-23T08:15:06.970Z,16.1
2022-09-23T08:17:39.544Z,16.1
2022-09-23T08:20:12.725Z,16.2
2022-09-23T08:22:44.813Z,16.3
2022-09-23T08:25:20.561Z,16.4
2022-09-23T08:27:50.357Z,16.5
2022-09-23T08:30:22.868Z,16.6
2022-09-23T08:32:55.347Z,16.6
2022-09-23T08:35:26.177Z,16.6
2022-09-23T08:37:58.447Z,16.7
2022-09-23T08:40:31.684Z,16.8
2022-09-23T08:43:04.031Z,16.8
2022-09-23T08:45:36.783Z,16.9
2022-09-23T08:48:12.772Z,17.1
2022-09-23T08:50:41.791Z,17.1
2022-09-23T08:53:14.213Z,17.2
2022-09-23T08:55:47.167Z,17.2
2022-09-23T08:58:26.972Z,17.2
2022-09-23T09:00:51.840Z,17.3
2022-09-23T09:03:24.907Z,17.4
2022-09-23T09:05:58.436Z,17.4
2022-09-23T09:08:30.840Z,17.5
2022-09-23T09:11:03.387Z,17.6
2022-09-23T09:13:34.249Z,17.6
2022-09-23T09:16:06.651Z,17.7
2022-09-23T09:18:39.164Z,17.6
2022-09-23T09:21:11.077Z,17.7
2022-09-23T09:23:43.548Z,17.7
2022-09-23T09:26:17.268Z,17.8
2022-09-23T09:28:49.773Z,18
2022-09-23T09:31:21.672Z,18.1
2022-09-23T09:33:53.711Z,18.1
2022-09-23T09:36:26.174Z,18
2022-09-23T09:38:58.445Z,18.1
2022-09-23T09:41:30.983Z,18.1
2022-09-23T09:44:03.209Z,18
2022-09-23T09:46:35.609Z,18.1
2022-09-23T09:49:08.756Z,18
2022-09-23T09:51:41.859Z,18.2
2022-09-23T09:54:14.273Z,18.2
2022-09-23T09:59:19.962Z,18.4
2022-09-23T10:01:52.746Z,18.4
2022-09-23T10:04:25.223Z,18.5
2022-09-23T10:06:57.334Z,18.7
2022-09-23T10:09:29.540Z,18.8
2022-09-23T10:12:01.667Z,18.6
2022-09-23T10:14:33.504Z,18.2
2022-09-23T10:17:07.196Z,18.4
2022-09-23T10:19:39.636Z,18.4
2022-09-23T10:22:13.935Z,18.3
2022-09-23T10:24:46.509Z,18.5
2022-09-23T10:27:18.664Z,18.5
2022-09-23T10:29:51.151Z,18.5
2022-09-23T10:32:24.147Z,18.6
2022-09-23T10:34:56.900Z,18.7
2022-09-23T10:37:29.333Z,18.8
2022-09-23T10:40:01.669Z,18.7
2022-09-23T10:42:34.104Z,18.9
2022-09-23T10:45:06.542Z,19
2022-09-23T10:47:38.589Z,19.1
2022-09-23T10:50:09.339Z,19.1
2022-09-23T10:52:41.692Z,19.3
2022-09-23T10:55:13.780Z,19.2
2022-09-23T10:57:47.571Z,19.1
2022-09-23T11:00:19.002Z,19.1
2022-09-23T11:02:51.222Z,19
2022-09-23T11:05:23.013Z,18.9
2022-09-23T11:07:55.260Z,18.7
2022-09-23T11:10:45.285Z,18.4
2022-09-23T11:12:59.965Z,18.6
2022-09-23T11:15:30.598Z,18.5
2022-09-23T11:18:02.807Z,18.8
2022-09-23T11:20:36.580Z,19.1
2022-09-23T11:23:08.891Z,19
2022-09-23T11:25:41.290Z,18.8
2022-09-23T11:28:13.240Z,18.9
2022-09-23T11:30:45.883Z,19
2022-09-23T11:33:17.691Z,19.1
2022-09-23T11:35:49.788Z,19.2
2022-09-23T11:38:21.753Z,19.5
2022-09-23T11:40:53.810Z,19.6
2022-09-23T11:43:28.504Z,19.6
2022-09-23T11:46:00.190Z,19.8
2022-09-23T11:48:31.717Z,19.7
2022-09-23T11:51:05.030Z,19.5
2022-09-23T11:53:36.979Z,19.3
2022-09-23T11:56:09.106Z,19.2
2022-09-23T11:58:41.755Z,19.1
2022-09-23T12:01:13.521Z,19.2
2022-09-23T12:03:45.649Z,19.4
2022-09-23T12:06:17.780Z,19.4
2022-09-23T12:08:49.743Z,19.4
2022-09-23T12:11:20.291Z,19.5
2022-09-23T12:13:52.670Z,19.5
2022-09-23T12:16:24.061Z,19.6
2022-09-23T12:18:56.079Z,19.7
2022-09-23T12:21:49.590Z,19.8
2022-09-23T12:24:03.255Z,19.6
2022-09-23T12:26:35.784Z,19.5
2022-09-23T12:29:07.462Z,19.5
2022-09-23T12:31:41.058Z,19.5
2022-09-23T12:34:12.131Z,19.4
2022-09-23T12:36:44.054Z,19.3
2022-09-23T12:39:16.557Z,19.5
2022-09-23T12:41:49.044Z,19.7
2022-09-23T12:44:21.404Z,20
2022-09-23T12:46:55.136Z,20.2
2022-09-23T12:49:25.830Z,20.3
2022-09-23T12:51:58.359Z,20.5
2022-09-23T12:54:31.058Z,20.6
2022-09-23T12:57:03.765Z,20.8
2022-09-23T12:59:36.276Z,20.7
2022-09-23T13:02:09.972Z,20.9
2022-09-23T13:04:41.792Z,21.1
2022-09-23T13:07:15.032Z,21.2
2022-09-23T13:09:47.298Z,21.2
2022-09-23T13:12:19.560Z,21.4
2022-09-23T13:14:52.307Z,21.6
2022-09-23T13:17:28.739Z,21.5
2022-09-23T13:20:01.582Z,21.1
2022-09-23T13:22:34.113Z,21
2022-09-23T13:25:07.100Z,21
2022-09-23T13:27:39.500Z,21.1
2022-09-23T13:30:12.499Z,21
2022-09-23T13:32:45.678Z,20.9
2022-09-23T13:35:17.121Z,20.7
2022-09-23T13:37:53.281Z,20.5
2022-09-23T13:40:27.309Z,20.6
2022-09-23T13:43:01.554Z,20.6
2022-09-23T13:45:33.988Z,20.6
2022-09-23T13:48:07.093Z,20.6
2022-09-23T13:50:39.952Z,20.6
2022-09-23T13:53:12.839Z,20.4
2022-09-23T13:55:50.260Z,20.2
2022-09-23T13:58:18.738Z,20.2
2022-09-23T14:00:51.316Z,19.8
2022-09-23T14:03:21.944Z,19.4
2022-09-23T14:05:54.395Z,19.4
2022-09-23T14:08:28.020Z,19.3
2022-09-23T14:11:00.260Z,19.3
2022-09-23T14:13:33.175Z,19.2
2022-09-23T14:16:09.289Z,19.2
2022-09-23T14:18:42.325Z,19.2
2022-09-23T14:21:17.233Z,19.1
2022-09-23T14:23:49.752Z,19
2022-09-23T14:26:22.314Z,19
2022-09-23T14:28:54.257Z,18.8
2022-09-23T14:31:26.501Z,18.8
2022-09-23T14:33:58.712Z,18.6
2022-09-23T14:36:31.171Z,18.3
2022-09-23T14:39:03.209Z,18.2
2022-09-23T14:41:33.468Z,18.1
2022-09-23T14:44:06.889Z,17.9
2022-09-23T14:46:39.571Z,17.9
2022-09-23T14:49:11.283Z,17.9
2022-09-23T14:51:43.370Z,18.2
2022-09-23T14:54:16.636Z,18.2
2022-09-23T14:56:49.010Z,18.1
2022-09-23T14:59:22.255Z,18.2
2022-09-23T15:01:54.333Z,18.2
2022-09-23T15:04:26.801Z,18.4
2022-09-23T15:06:58.914Z,18.4
2022-09-23T15:09:29.719Z,18.4
2022-09-23T15:12:02.230Z,18.3
2022-09-23T15:14:38.131Z,18.4
2022-09-23T15:17:05.143Z,18.4
2022-09-23T15:19:37.189Z,18.3
2022-09-23T15:22:09.366Z,18.3
2022-09-23T15:24:41.785Z,18.2
2022-09-23T15:27:14.165Z,18.1
2022-09-23T15:29:46.930Z,18
2022-09-23T15:32:19.601Z,18
2022-09-23T15:34:51.732Z,18
2022-09-23T15:37:24.168Z,17.9
2022-09-23T15:39:55.904Z,17.9
2022-09-23T15:42:27.425Z,17.8
2022-09-23T15:44:59.530Z,17.8
2022-09-23T15:47:32.286Z,17.8
2022-09-23T15:50:04.575Z,17.7
2022-09-23T15:52:37.302Z,17.7
2022-09-23T15:55:09.958Z,17.5
2022-09-23T15:57:43.482Z,17.5
2022-09-23T16:00:19.767Z,17.5
2022-09-23T16:02:57.463Z,17.4
2022-09-23T16:05:30.207Z,17.4
2022-09-23T16:08:06.401Z,17.3
2022-09-23T16:10:35.183Z,17.3
2022-09-23T16:13:07.629Z,17.3
2022-09-23T16:15:40.727Z,17.2
2022-09-23T16:18:14.170Z,17.2
2022-09-23T16:20:46.677Z,17.1
2022-09-23T16:23:18.957Z,17.1
2022-09-23T16:25:51.490Z,17
2022-09-23T16:28:23.770Z,16.9
2022-09-23T16:30:56.464Z,16.9
2022-09-23T16:33:28.725Z,16.8
2022-09-23T16:36:00.773Z,16.8
2022-09-23T16:38:32.932Z,16.7
2022-09-23T16:41:05.572Z,16.7
2022-09-23T16:43:37.267Z,16.6
2022-09-23T16:46:10.947Z,16.5
2022-09-23T16:48:45.917Z,16.5
2022-09-23T16:51:16.155Z,16.5
2022-09-23T16:53:48.131Z,16.6
2022-09-23T16:56:23.021Z,16.5
2022-09-23T16:58:52.405Z,16.6
2022-09-23T17:01:24.624Z,16.5
2022-09-23T17:03:56.753Z,16.4
2022-09-23T17:06:29.840Z,16.4
2022-09-23T17:09:02.101Z,16.2
2022-09-23T17:11:34.483Z,16.2
2022-09-23T17:14:07.092Z,16.1
2022-09-23T17:16:39.456Z,16
2022-09-23T17:19:11.498Z,15.9
2022-09-23T17:21:43.692Z,16
2022-09-23T17:24:16.019Z,15.9
2022-09-23T17:26:52.736Z,15.8
2022-09-23T17:29:21.942Z,15.8
2022-09-23T17:31:54.342Z,15.8
2022-09-23T17:34:27.230Z,15.9
2022-09-23T17:36:59.898Z,15.7
2022-09-23T17:39:32.094Z,15.7
2022-09-23T17:42:04.656Z,15.6
2022-09-23T17:44:36.912Z,15.6
2022-09-23T17:47:09.242Z,15.6
2022-09-23T17:49:41.431Z,15.5
2022-09-23T17:52:13.841Z,15.5
2022-09-23T17:54:46.482Z,15.3
2022-09-23T17:57:18.590Z,15
2022-09-23T17:59:51.929Z,15
2022-09-23T18:02:24.259Z,14.9
2022-09-23T18:04:56.946Z,15
2022-09-23T18:07:33.227Z,15
2022-09-23T18:10:06.221Z,14.9
2022-09-23T18:12:38.455Z,14.9
2022-09-23T18:15:10.706Z,14.7
2022-09-23T18:17:43.837Z,14.6
2022-09-23T18:20:16.022Z,14.7
2022-09-23T18:22:47.805Z,14.6
2022-09-23T18:25:37.935Z,14.6
2022-09-23T18:27:52.321Z,14.6
2022-09-23T18:30:24.242Z,14.4
2022-09-23T18:32:56.269Z,14.3
2022-09-23T18:35:28.362Z,14.4
2022-09-23T18:38:00.292Z,14.4
2022-09-23T18:40:32.346Z,14.3
2022-09-23T18:43:05.159Z,14.4
2022-09-23T18:45:37.232Z,14.3
2022-09-23T18:48:10.440Z,14.3
2022-09-23T18:50:43.835Z,14.2
2022-09-23T18:53:16.233Z,14.1
2022-09-23T18:55:48.681Z,14.1
2022-09-23T18:58:20.010Z,14
2022-09-23T19:00:52.210Z,14.1
2022-09-23T19:03:24.066Z,14
2022-09-23T19:05:56.190Z,13.9
2022-09-23T19:08:28.428Z,13.9
2022-09-23T19:11:00.436Z,13.8
2022-09-23T19:13:32.408Z,13.6
2022-09-23T19:16:05.149Z,13.7
2022-09-23T19:18:38.445Z,13.6
2022-09-23T19:21:11.685Z,13.6
2022-09-23T19:23:44.095Z,13.6
2022-09-23T19:26:17.688Z,13.6
2022-09-23T19:28:50.168Z,13.5
2022-09-23T19:31:23.741Z,13.5
2022-09-23T19:33:56.458Z,13.4
2022-09-23T19:36:28.756Z,13.4
2022-09-23T19:39:01.094Z,13.3
2022-09-23T19:41:34.158Z,13.3
2022-09-23T19:44:07.912Z,13.3
2022-09-23T19:46:39.987Z,13.2
2022-09-23T19:49:13.301Z,13.1
2022-09-23T19:51:44.251Z,13.1
2022-09-23T19:54:16.486Z,13
2022-09-23T19:56:48.901Z,13
2022-09-23T19:59:23.461Z,13
2022-09-23T20:01:56.014Z,12.9
2022-09-23T20:04:28.348Z,12.9
2022-09-23T20:06:59.069Z,12.8
2022-09-23T20:09:31.363Z,12.8
2022-09-23T20:12:03.970Z,12.8
2022-09-23T20:14:36.619Z,12.8
2022-09-23T20:17:08.622Z,12.7
2022-09-23T20:19:41.625Z,12.7
2022-09-23T20:22:13.855Z,12.7
2022-09-23T20:24:46.289Z,12.6
2022-09-23T20:27:18.520Z,12.6
2022-09-23T20:29:50.742Z,12.6
2022-09-23T20:32:23.469Z,12.4
2022-09-23T20:34:54.588Z,12.4
2022-09-23T20:37:26.092Z,12.4
2022-09-23T20:39:58.393Z,12.4
2022-09-23T20:42:31.261Z,12.4
2022-09-23T20:45:03.492Z,12.2
2022-09-23T20:47:37.111Z,12.2
2022-09-23T20:50:09.590Z,12.1
2022-09-23T20:52:42.198Z,12.1
2022-09-23T20:55:17.664Z,12.1
2022-09-23T20:57:49.671Z,12.1
2022-09-23T21:00:20.721Z,12.1
2022-09-23T21:02:52.126Z,12.1
2022-09-23T21:05:24.720Z,12
2022-09-23T21:08:00.798Z,12
2022-09-23T21:10:29.475Z,12.1
2022-09-23T21:13:04.128Z,12
2022-09-23T21:15:35.192Z,12
2022-09-23T21:18:10.079Z,12
2022-09-23T21:20:40.070Z,11.9
2022-09-23T21:23:12.345Z,11.8
2022-09-23T21:25:45.074Z,11.9
2022-09-23T21:28:16.584Z,11.9
2022-09-23T21:30:51.893Z,11.8
2022-09-23T21:33:21.398Z,11.8
2022-09-23T21:35:53.781Z,11.7
2022-09-23T21:38:26.345Z,11.7
2022-09-23T21:40:58.571Z,11.7
2022-09-23T21:43:30.774Z,11.7
2022-09-23T21:46:03.302Z,11.7
2022-09-23T21:48:35.236Z,11.7
2022-09-23T21:51:07.409Z,11.7
2022-09-23T21:53:39.727Z,11.6
2022-09-23T21:56:11.482Z,11.5
2022-09-23T21:58:41.751Z,11.6
2022-09-23T22:01:13.944Z,11.5
2022-09-23T22:03:46.148Z,11.6
2022-09-23T22:06:18.558Z,11.5
2022-09-23T22:08:51.921Z,11.4
2022-09-23T22:11:23.751Z,11.5
2022-09-23T22:13:56.308Z,11.5
2022-09-23T22:16:29.171Z,11.4
2022-09-23T22:19:00.485Z,11.4
2022-09-23T22:21:33.001Z,11.4
2022-09-23T22:24:06.502Z,11.4
2022-09-23T22:26:38.691Z,11.4
2022-09-23T22:29:11.142Z,11.3
2022-09-23T22:31:43.589Z,11.2
2022-09-23T22:34:31.201Z,11.2
2022-09-23T22:36:48.379Z,11.1
2022-09-23T22:39:21.954Z,11.1
2022-09-23T22:41:54.496Z,11
2022-09-23T22:44:28.063Z,10.9
2022-09-23T22:47:00.840Z,10.8
2022-09-23T22:49:33.359Z,10.9
2022-09-23T22:52:07.075Z,10.9
2022-09-23T22:54:39.618Z,10.8
2022-09-23T22:57:12.004Z,10.7
2022-09-23T22:59:44.445Z,10.7
2022-09-23T23:02:17.309Z,10.7
2022-09-23T23:04:49.606Z,10.7
2022-09-23T23:07:22.249Z,10.7
2022-09-23T23:09:54.949Z,10.6
2022-09-23T23:12:28.468Z,10.6
2022-09-23T23:15:00.827Z,10.6
2022-09-23T23:17:33.617Z,10.6
2022-09-23T23:20:07.171Z,10.6
2022-09-23T23:22:39.498Z,10.5
2022-09-23T23:25:12.170Z,10.6
2022-09-23T23:27:44.264Z,10.5
2022-09-23T23:30:16.585Z,10.6
2022-09-23T23:32:48.685Z,10.6
2022-09-23T23:35:21.769Z,10.4
2022-09-23T23:37:54.828Z,10.5
2022-09-23T23:40:27.423Z,10.5
2022-09-23T23:42:59.986Z,10.4
2022-09-23T23:45:32.444Z,10.3
2022-09-23T23:48:05.084Z,10.3
2022-09-23T23:50:37.685Z,10.4
2022-09-23T23:53:10.398Z,10.3
2022-09-23T23:55:44.065Z,10.3
2022-09-23T23:58:16.927Z,10.3
